sensor_id;sensor_type;location;lat;lon;timestamp;P1;durP1;ratioP1;P2;durP2;ratioP2
71503;SDS011;59323;50.874;7.028;2023-07-29T00:02:01;2.63;;;1.40;;
71503;SDS011;59323;50.874;7.028;2023-07-29T00:04:27;3.60;;;1.60;;
71503;SDS011;59323;50.874;7.028;2023-07-29T00:06:53;3.60;;;1.25;;
71503;SDS011;59323;50.874;7.028;2023-07-29T00:09:18;4.53;;;1.33;;
71503;SDS011;59323;50.874;7.028;2023-07-29T00:11:43;2.83;;;1.50;;
71503;SDS011;59323;50.874;7.028;2023-07-29T00:14:09;3.67;;;1.50;;
71503;SDS011;59323;50.874;7.028;2023-07-29T00:16:34;11.57;;;1.87;;
71503;SDS011;59323;50.874;7.028;2023-07-29T00:18:59;3.15;;;1.42;;
71503;SDS011;59323;50.874;7.028;2023-07-29T00:21:25;3.30;;;1.27;;
71503;SDS011;59323;50.874;7.028;2023-07-29T00:23:50;4.40;;;1.57;;
71503;SDS011;59323;50.874;7.028;2023-07-29T00:26:15;3.10;;;1.50;;
71503;SDS011;59323;50.874;7.028;2023-07-29T00:28:41;4.90;;;1.83;;
71503;SDS011;59323;50.874;7.028;2023-07-29T00:31:06;7.03;;;1.60;;
71503;SDS011;59323;50.874;7.028;2023-07-29T00:33:31;6.60;;;1.93;;
71503;SDS011;59323;50.874;7.028;2023-07-29T00:35:57;6.43;;;1.90;;
71503;SDS011;59323;50.874;7.028;2023-07-29T00:38:26;4.50;;;1.77;;
71503;SDS011;59323;50.874;7.028;2023-07-29T00:40:52;3.92;;;1.60;;
71503;SDS011;59323;50.874;7.028;2023-07-29T00:43:17;4.80;;;1.80;;
71503;SDS011;59323;50.874;7.028;2023-07-29T00:45:42;4.53;;;1.43;;
71503;SDS011;59323;50.874;7.028;2023-07-29T00:48:09;3.83;;;2.03;;
71503;SDS011;59323;50.874;7.028;2023-07-29T00:50:34;3.47;;;1.73;;
71503;SDS011;59323;50.874;7.028;2023-07-29T00:53:00;3.97;;;1.52;;
71503;SDS011;59323;50.874;7.028;2023-07-29T00:55:25;3.73;;;2.00;;
71503;SDS011;59323;50.874;7.028;2023-07-29T00:57:51;2.87;;;1.60;;
71503;SDS011;59323;50.874;7.028;2023-07-29T01:00:19;4.13;;;1.63;;
71503;SDS011;59323;50.874;7.028;2023-07-29T01:02:45;3.45;;;1.40;;
71503;SDS011;59323;50.874;7.028;2023-07-29T01:05:11;3.83;;;1.90;;
71503;SDS011;59323;50.874;7.028;2023-07-29T01:15:27;4.63;;;2.10;;
71503;SDS011;59323;50.874;7.028;2023-07-29T01:18:05;4.87;;;1.80;;
71503;SDS011;59323;50.874;7.028;2023-07-29T01:20:34;4.18;;;1.40;;
71503;SDS011;59323;50.874;7.028;2023-07-29T01:23:03;4.93;;;1.90;;
71503;SDS011;59323;50.874;7.028;2023-07-29T01:25:29;5.07;;;2.07;;
71503;SDS011;59323;50.874;7.028;2023-07-29T01:27:54;4.23;;;1.87;;
71503;SDS011;59323;50.874;7.028;2023-07-29T01:30:20;3.38;;;1.73;;
71503;SDS011;59323;50.874;7.028;2023-07-29T01:32:51;5.30;;;2.25;;
71503;SDS011;59323;50.874;7.028;2023-07-29T01:37:51;4.72;;;2.05;;
71503;SDS011;59323;50.874;7.028;2023-07-29T01:40:27;4.63;;;2.07;;
71503;SDS011;59323;50.874;7.028;2023-07-29T01:42:53;4.47;;;2.17;;
71503;SDS011;59323;50.874;7.028;2023-07-29T01:45:19;5.82;;;2.20;;
71503;SDS011;59323;50.874;7.028;2023-07-29T01:47:49;5.03;;;2.60;;
71503;SDS011;59323;50.874;7.028;2023-07-29T01:50:14;5.03;;;2.53;;
71503;SDS011;59323;50.874;7.028;2023-07-29T01:52:40;4.97;;;2.40;;
71503;SDS011;59323;50.874;7.028;2023-07-29T01:55:05;8.97;;;2.60;;
71503;SDS011;59323;50.874;7.028;2023-07-29T01:57:31;6.45;;;2.50;;
71503;SDS011;59323;50.874;7.028;2023-07-29T01:59:56;6.00;;;2.57;;
71503;SDS011;59323;50.874;7.028;2023-07-29T02:02:22;4.80;;;2.40;;
71503;SDS011;59323;50.874;7.028;2023-07-29T02:04:47;6.23;;;2.10;;
71503;SDS011;59323;50.874;7.028;2023-07-29T02:07:16;6.07;;;2.40;;
71503;SDS011;59323;50.874;7.028;2023-07-29T02:09:42;4.30;;;2.00;;
71503;SDS011;59323;50.874;7.028;2023-07-29T02:12:07;7.50;;;2.97;;
71503;SDS011;59323;50.874;7.028;2023-07-29T02:14:33;6.13;;;2.37;;
71503;SDS011;59323;50.874;7.028;2023-07-29T02:16:58;6.80;;;2.27;;
71503;SDS011;59323;50.874;7.028;2023-07-29T02:19:23;8.93;;;2.80;;
71503;SDS011;59323;50.874;7.028;2023-07-29T02:21:49;5.63;;;2.37;;
71503;SDS011;59323;50.874;7.028;2023-07-29T02:24:14;6.82;;;2.25;;
71503;SDS011;59323;50.874;7.028;2023-07-29T02:26:39;7.50;;;1.97;;
71503;SDS011;59323;50.874;7.028;2023-07-29T02:29:05;5.17;;;2.37;;
71503;SDS011;59323;50.874;7.028;2023-07-29T02:31:30;5.93;;;2.33;;
71503;SDS011;59323;50.874;7.028;2023-07-29T02:33:56;5.97;;;2.30;;
71503;SDS011;59323;50.874;7.028;2023-07-29T02:36:21;7.30;;;2.33;;
71503;SDS011;59323;50.874;7.028;2023-07-29T02:38:47;5.77;;;2.30;;
71503;SDS011;59323;50.874;7.028;2023-07-29T02:41:12;5.00;;;2.10;;
71503;SDS011;59323;50.874;7.028;2023-07-29T02:43:38;6.68;;;2.30;;
71503;SDS011;59323;50.874;7.028;2023-07-29T02:46:03;4.57;;;2.00;;
71503;SDS011;59323;50.874;7.028;2023-07-29T02:48:29;5.35;;;2.35;;
71503;SDS011;59323;50.874;7.028;2023-07-29T02:50:55;5.53;;;2.40;;
71503;SDS011;59323;50.874;7.028;2023-07-29T02:53:21;5.03;;;2.30;;
71503;SDS011;59323;50.874;7.028;2023-07-29T02:55:47;3.80;;;2.10;;
71503;SDS011;59323;50.874;7.028;2023-07-29T02:58:13;5.03;;;2.30;;
71503;SDS011;59323;50.874;7.028;2023-07-29T03:00:38;5.97;;;2.40;;
71503;SDS011;59323;50.874;7.028;2023-07-29T03:03:06;5.90;;;2.20;;
71503;SDS011;59323;50.874;7.028;2023-07-29T03:05:32;4.78;;;2.17;;
71503;SDS011;59323;50.874;7.028;2023-07-29T03:07:57;7.33;;;2.20;;
71503;SDS011;59323;50.874;7.028;2023-07-29T03:10:23;5.20;;;1.97;;
71503;SDS011;59323;50.874;7.028;2023-07-29T03:12:48;4.60;;;2.50;;
71503;SDS011;59323;50.874;7.028;2023-07-29T03:18:04;5.50;;;2.17;;
71503;SDS011;59323;50.874;7.028;2023-07-29T03:20:29;8.27;;;3.17;;
71503;SDS011;59323;50.874;7.028;2023-07-29T03:22:55;5.60;;;2.23;;
71503;SDS011;59323;50.874;7.028;2023-07-29T03:25:20;5.33;;;2.07;;
71503;SDS011;59323;50.874;7.028;2023-07-29T03:27:45;5.30;;;2.15;;
71503;SDS011;59323;50.874;7.028;2023-07-29T03:30:14;5.37;;;2.30;;
71503;SDS011;59323;50.874;7.028;2023-07-29T03:32:42;5.57;;;2.15;;
71503;SDS011;59323;50.874;7.028;2023-07-29T03:35:10;5.05;;;2.20;;
71503;SDS011;59323;50.874;7.028;2023-07-29T03:37:35;3.57;;;2.00;;
71503;SDS011;59323;50.874;7.028;2023-07-29T03:40:01;4.37;;;1.80;;
71503;SDS011;59323;50.874;7.028;2023-07-29T03:42:28;3.70;;;1.83;;
71503;SDS011;59323;50.874;7.028;2023-07-29T03:44:53;3.43;;;1.97;;
71503;SDS011;59323;50.874;7.028;2023-07-29T03:47:18;4.70;;;2.03;;
71503;SDS011;59323;50.874;7.028;2023-07-29T03:49:44;4.80;;;2.27;;
71503;SDS011;59323;50.874;7.028;2023-07-29T03:52:09;5.03;;;2.10;;
71503;SDS011;59323;50.874;7.028;2023-07-29T03:54:35;4.35;;;1.80;;
71503;SDS011;59323;50.874;7.028;2023-07-29T03:57:00;2.97;;;1.27;;
71503;SDS011;59323;50.874;7.028;2023-07-29T03:59:26;4.43;;;1.73;;
71503;SDS011;59323;50.874;7.028;2023-07-29T04:01:51;4.33;;;1.97;;
71503;SDS011;59323;50.874;7.028;2023-07-29T04:04:16;4.53;;;1.67;;
71503;SDS011;59323;50.874;7.028;2023-07-29T04:06:42;3.67;;;1.80;;
71503;SDS011;59323;50.874;7.028;2023-07-29T04:09:07;4.77;;;2.47;;
71503;SDS011;59323;50.874;7.028;2023-07-29T04:11:33;4.53;;;2.60;;
71503;SDS011;59323;50.874;7.028;2023-07-29T04:13:58;5.10;;;2.33;;
71503;SDS011;59323;50.874;7.028;2023-07-29T04:16:24;3.37;;;1.90;;
71503;SDS011;59323;50.874;7.028;2023-07-29T04:18:49;5.10;;;2.03;;
71503;SDS011;59323;50.874;7.028;2023-07-29T04:21:14;4.37;;;2.30;;
71503;SDS011;59323;50.874;7.028;2023-07-29T04:23:40;3.97;;;2.10;;
71503;SDS011;59323;50.874;7.028;2023-07-29T04:26:05;5.20;;;2.27;;
71503;SDS011;59323;50.874;7.028;2023-07-29T04:28:31;4.27;;;2.10;;
71503;SDS011;59323;50.874;7.028;2023-07-29T04:30:56;4.23;;;2.33;;
71503;SDS011;59323;50.874;7.028;2023-07-29T04:33:21;5.20;;;2.55;;
71503;SDS011;59323;50.874;7.028;2023-07-29T04:35:47;3.83;;;2.10;;
71503;SDS011;59323;50.874;7.028;2023-07-29T04:38:12;4.50;;;2.40;;
71503;SDS011;59323;50.874;7.028;2023-07-29T04:40:37;5.57;;;2.40;;
71503;SDS011;59323;50.874;7.028;2023-07-29T04:43:03;5.03;;;2.67;;
71503;SDS011;59323;50.874;7.028;2023-07-29T04:45:28;5.03;;;2.00;;
71503;SDS011;59323;50.874;7.028;2023-07-29T04:47:54;5.13;;;2.30;;
71503;SDS011;59323;50.874;7.028;2023-07-29T04:50:20;4.85;;;2.95;;
71503;SDS011;59323;50.874;7.028;2023-07-29T04:52:45;3.93;;;2.23;;
71503;SDS011;59323;50.874;7.028;2023-07-29T04:55:11;5.50;;;2.60;;
71503;SDS011;59323;50.874;7.028;2023-07-29T04:57:36;6.00;;;2.72;;
71503;SDS011;59323;50.874;7.028;2023-07-29T05:00:02;5.07;;;3.03;;
71503;SDS011;59323;50.874;7.028;2023-07-29T05:02:28;6.93;;;2.83;;
71503;SDS011;59323;50.874;7.028;2023-07-29T05:04:53;5.00;;;2.50;;
71503;SDS011;59323;50.874;7.028;2023-07-29T05:07:19;4.83;;;2.40;;
71503;SDS011;59323;50.874;7.028;2023-07-29T05:09:44;4.23;;;2.03;;
71503;SDS011;59323;50.874;7.028;2023-07-29T05:12:09;3.47;;;2.17;;
71503;SDS011;59323;50.874;7.028;2023-07-29T05:14:35;3.43;;;1.70;;
71503;SDS011;59323;50.874;7.028;2023-07-29T05:17:00;3.60;;;1.87;;
71503;SDS011;59323;50.874;7.028;2023-07-29T05:19:25;3.90;;;2.23;;
71503;SDS011;59323;50.874;7.028;2023-07-29T05:21:51;3.90;;;2.10;;
71503;SDS011;59323;50.874;7.028;2023-07-29T05:24:16;3.57;;;1.80;;
71503;SDS011;59323;50.874;7.028;2023-07-29T05:26:42;4.30;;;1.80;;
71503;SDS011;59323;50.874;7.028;2023-07-29T05:29:07;3.87;;;2.13;;
71503;SDS011;59323;50.874;7.028;2023-07-29T05:31:33;5.03;;;2.00;;
71503;SDS011;59323;50.874;7.028;2023-07-29T05:33:58;5.37;;;1.97;;
71503;SDS011;59323;50.874;7.028;2023-07-29T05:36:24;2.95;;;1.50;;
71503;SDS011;59323;50.874;7.028;2023-07-29T05:38:49;3.87;;;1.80;;
71503;SDS011;59323;50.874;7.028;2023-07-29T05:41:16;3.78;;;1.60;;
71503;SDS011;59323;50.874;7.028;2023-07-29T05:43:41;4.90;;;1.80;;
71503;SDS011;59323;50.874;7.028;2023-07-29T05:46:08;3.88;;;2.05;;
71503;SDS011;59323;50.874;7.028;2023-07-29T05:48:34;5.47;;;2.00;;
71503;SDS011;59323;50.874;7.028;2023-07-29T05:51:00;4.60;;;1.97;;
71503;SDS011;59323;50.874;7.028;2023-07-29T05:53:25;5.73;;;2.13;;
71503;SDS011;59323;50.874;7.028;2023-07-29T05:55:50;5.43;;;1.97;;
71503;SDS011;59323;50.874;7.028;2023-07-29T05:58:16;3.83;;;1.80;;
71503;SDS011;59323;50.874;7.028;2023-07-29T06:00:41;4.40;;;2.00;;
71503;SDS011;59323;50.874;7.028;2023-07-29T06:03:07;3.78;;;2.00;;
71503;SDS011;59323;50.874;7.028;2023-07-29T06:05:32;4.80;;;2.30;;
71503;SDS011;59323;50.874;7.028;2023-07-29T06:07:57;3.60;;;2.00;;
71503;SDS011;59323;50.874;7.028;2023-07-29T06:10:23;5.17;;;1.90;;
71503;SDS011;59323;50.874;7.028;2023-07-29T06:12:48;5.50;;;2.20;;
71503;SDS011;59323;50.874;7.028;2023-07-29T06:15:14;4.97;;;2.33;;
71503;SDS011;59323;50.874;7.028;2023-07-29T06:17:40;4.17;;;2.13;;
71503;SDS011;59323;50.874;7.028;2023-07-29T06:20:06;5.13;;;2.70;;
71503;SDS011;59323;50.874;7.028;2023-07-29T06:22:31;7.47;;;2.97;;
71503;SDS011;59323;50.874;7.028;2023-07-29T06:24:57;5.23;;;2.80;;
71503;SDS011;59323;50.874;7.028;2023-07-29T06:27:23;6.00;;;2.70;;
71503;SDS011;59323;50.874;7.028;2023-07-29T06:29:50;6.68;;;2.72;;
71503;SDS011;59323;50.874;7.028;2023-07-29T06:32:15;7.07;;;2.97;;
71503;SDS011;59323;50.874;7.028;2023-07-29T06:34:40;6.07;;;2.90;;
71503;SDS011;59323;50.874;7.028;2023-07-29T06:37:06;6.45;;;2.70;;
71503;SDS011;59323;50.874;7.028;2023-07-29T06:39:31;6.70;;;2.90;;
71503;SDS011;59323;50.874;7.028;2023-07-29T06:41:57;6.30;;;2.50;;
71503;SDS011;59323;50.874;7.028;2023-07-29T06:44:22;5.68;;;2.33;;
71503;SDS011;59323;50.874;7.028;2023-07-29T06:46:48;7.47;;;2.60;;
71503;SDS011;59323;50.874;7.028;2023-07-29T06:49:13;8.80;;;2.83;;
71503;SDS011;59323;50.874;7.028;2023-07-29T06:51:39;5.70;;;2.43;;
71503;SDS011;59323;50.874;7.028;2023-07-29T06:54:04;5.23;;;2.30;;
71503;SDS011;59323;50.874;7.028;2023-07-29T06:56:29;5.45;;;2.35;;
71503;SDS011;59323;50.874;7.028;2023-07-29T06:58:55;5.47;;;2.00;;
71503;SDS011;59323;50.874;7.028;2023-07-29T07:01:20;6.20;;;2.10;;
71503;SDS011;59323;50.874;7.028;2023-07-29T07:03:45;5.17;;;2.20;;
71503;SDS011;59323;50.874;7.028;2023-07-29T07:06:11;6.27;;;2.20;;
71503;SDS011;59323;50.874;7.028;2023-07-29T07:08:36;6.60;;;2.50;;
71503;SDS011;59323;50.874;7.028;2023-07-29T07:11:02;6.17;;;2.60;;
71503;SDS011;59323;50.874;7.028;2023-07-29T07:13:27;5.33;;;2.03;;
71503;SDS011;59323;50.874;7.028;2023-07-29T07:15:56;6.80;;;2.23;;
71503;SDS011;59323;50.874;7.028;2023-07-29T07:18:22;5.85;;;2.40;;
71503;SDS011;59323;50.874;7.028;2023-07-29T07:20:48;6.85;;;2.95;;
71503;SDS011;59323;50.874;7.028;2023-07-29T07:23:14;6.55;;;2.33;;
71503;SDS011;59323;50.874;7.028;2023-07-29T07:25:40;7.17;;;2.03;;
71503;SDS011;59323;50.874;7.028;2023-07-29T07:28:07;4.82;;;1.90;;
71503;SDS011;59323;50.874;7.028;2023-07-29T07:30:32;4.43;;;2.20;;
71503;SDS011;59323;50.874;7.028;2023-07-29T07:32:58;5.82;;;2.63;;
71503;SDS011;59323;50.874;7.028;2023-07-29T07:35:23;7.47;;;2.80;;
71503;SDS011;59323;50.874;7.028;2023-07-29T07:37:48;5.93;;;2.50;;
71503;SDS011;59323;50.874;7.028;2023-07-29T07:40:14;6.57;;;2.40;;
71503;SDS011;59323;50.874;7.028;2023-07-29T07:42:39;7.15;;;2.78;;
71503;SDS011;59323;50.874;7.028;2023-07-29T07:45:05;5.83;;;2.20;;
71503;SDS011;59323;50.874;7.028;2023-07-29T07:47:30;5.00;;;2.70;;
71503;SDS011;59323;50.874;7.028;2023-07-29T07:49:56;5.72;;;2.78;;
71503;SDS011;59323;50.874;7.028;2023-07-29T07:52:21;7.73;;;2.70;;
71503;SDS011;59323;50.874;7.028;2023-07-29T07:54:51;6.20;;;2.60;;
71503;SDS011;59323;50.874;7.028;2023-07-29T07:57:17;6.57;;;2.75;;
71503;SDS011;59323;50.874;7.028;2023-07-29T07:59:42;6.73;;;2.60;;
71503;SDS011;59323;50.874;7.028;2023-07-29T08:02:08;6.07;;;2.30;;
71503;SDS011;59323;50.874;7.028;2023-07-29T08:04:33;8.00;;;2.22;;
71503;SDS011;59323;50.874;7.028;2023-07-29T08:06:58;5.33;;;2.17;;
71503;SDS011;59323;50.874;7.028;2023-07-29T08:09:24;4.73;;;2.20;;
71503;SDS011;59323;50.874;7.028;2023-07-29T08:11:49;5.53;;;1.97;;
71503;SDS011;59323;50.874;7.028;2023-07-29T08:14:14;4.00;;;1.70;;
71503;SDS011;59323;50.874;7.028;2023-07-29T08:16:40;4.70;;;2.30;;
71503;SDS011;59323;50.874;7.028;2023-07-29T08:19:05;5.97;;;1.70;;
71503;SDS011;59323;50.874;7.028;2023-07-29T08:21:32;4.00;;;2.27;;
71503;SDS011;59323;50.874;7.028;2023-07-29T08:23:57;4.47;;;1.67;;
71503;SDS011;59323;50.874;7.028;2023-07-29T08:26:22;5.30;;;2.03;;
71503;SDS011;59323;50.874;7.028;2023-07-29T08:28:48;4.43;;;1.97;;
71503;SDS011;59323;50.874;7.028;2023-07-29T08:31:13;4.83;;;1.63;;
71503;SDS011;59323;50.874;7.028;2023-07-29T08:33:39;5.87;;;2.10;;
71503;SDS011;59323;50.874;7.028;2023-07-29T08:36:04;3.80;;;1.70;;
71503;SDS011;59323;50.874;7.028;2023-07-29T08:38:29;4.53;;;1.60;;
71503;SDS011;59323;50.874;7.028;2023-07-29T08:46:51;3.60;;;1.85;;
71503;SDS011;59323;50.874;7.028;2023-07-29T08:49:18;4.93;;;1.60;;
71503;SDS011;59323;50.874;7.028;2023-07-29T08:51:45;3.83;;;1.40;;
71503;SDS011;59323;50.874;7.028;2023-07-29T08:54:13;4.10;;;1.70;;
71503;SDS011;59323;50.874;7.028;2023-07-29T08:56:40;3.85;;;1.45;;
71503;SDS011;59323;50.874;7.028;2023-07-29T08:59:06;4.80;;;1.70;;
71503;SDS011;59323;50.874;7.028;2023-07-29T09:01:32;4.55;;;1.60;;
71503;SDS011;59323;50.874;7.028;2023-07-29T09:03:58;3.63;;;1.70;;
71503;SDS011;59323;50.874;7.028;2023-07-29T09:06:24;3.28;;;1.33;;
71503;SDS011;59323;50.874;7.028;2023-07-29T09:08:52;6.57;;;1.65;;
71503;SDS011;59323;50.874;7.028;2023-07-29T09:11:19;4.10;;;1.80;;
71503;SDS011;59323;50.874;7.028;2023-07-29T09:13:45;2.97;;;1.60;;
71503;SDS011;59323;50.874;7.028;2023-07-29T09:16:11;3.57;;;1.70;;
71503;SDS011;59323;50.874;7.028;2023-07-29T09:18:36;3.13;;;1.70;;
71503;SDS011;59323;50.874;7.028;2023-07-29T09:21:02;3.75;;;1.52;;
71503;SDS011;59323;50.874;7.028;2023-07-29T09:23:28;4.22;;;1.67;;
71503;SDS011;59323;50.874;7.028;2023-07-29T09:26:05;3.45;;;1.70;;
71503;SDS011;59323;50.874;7.028;2023-07-29T09:28:37;5.00;;;1.30;;
71503;SDS011;59323;50.874;7.028;2023-07-29T09:31:04;4.57;;;1.45;;
71503;SDS011;59323;50.874;7.028;2023-07-29T09:33:32;4.28;;;1.63;;
71503;SDS011;59323;50.874;7.028;2023-07-29T09:36:00;3.87;;;1.50;;
71503;SDS011;59323;50.874;7.028;2023-07-29T09:38:26;4.60;;;1.75;;
71503;SDS011;59323;50.874;7.028;2023-07-29T09:40:54;3.20;;;1.70;;
71503;SDS011;59323;50.874;7.028;2023-07-29T09:43:24;4.87;;;1.90;;
71503;SDS011;59323;50.874;7.028;2023-07-29T09:45:51;3.95;;;1.55;;
71503;SDS011;59323;50.874;7.028;2023-07-29T09:48:19;3.47;;;1.35;;
71503;SDS011;59323;50.874;7.028;2023-07-29T09:50:47;2.53;;;1.25;;
71503;SDS011;59323;50.874;7.028;2023-07-29T09:53:13;4.87;;;1.70;;
71503;SDS011;59323;50.874;7.028;2023-07-29T09:55:39;3.90;;;1.58;;
71503;SDS011;59323;50.874;7.028;2023-07-29T09:58:10;6.07;;;1.40;;
71503;SDS011;59323;50.874;7.028;2023-07-29T10:00:36;2.83;;;1.10;;
71503;SDS011;59323;50.874;7.028;2023-07-29T10:03:04;4.47;;;1.42;;
71503;SDS011;59323;50.874;7.028;2023-07-29T10:05:29;2.30;;;1.07;;
71503;SDS011;59323;50.874;7.028;2023-07-29T10:07:55;3.77;;;1.57;;
71503;SDS011;59323;50.874;7.028;2023-07-29T10:10:21;2.88;;;1.20;;
71503;SDS011;59323;50.874;7.028;2023-07-29T10:12:47;3.45;;;1.13;;
71503;SDS011;59323;50.874;7.028;2023-07-29T10:15:12;2.50;;;1.03;;
71503;SDS011;59323;50.874;7.028;2023-07-29T10:17:39;2.35;;;1.05;;
71503;SDS011;59323;50.874;7.028;2023-07-29T10:20:10;3.03;;;1.17;;
71503;SDS011;59323;50.874;7.028;2023-07-29T10:22:39;3.40;;;1.57;;
71503;SDS011;59323;50.874;7.028;2023-07-29T10:25:18;3.92;;;1.20;;
71503;SDS011;59323;50.874;7.028;2023-07-29T10:27:52;3.10;;;1.63;;
71503;SDS011;59323;50.874;7.028;2023-07-29T10:30:22;3.23;;;1.40;;
71503;SDS011;59323;50.874;7.028;2023-07-29T10:32:50;4.20;;;1.55;;
71503;SDS011;59323;50.874;7.028;2023-07-29T10:35:17;3.63;;;1.65;;
71503;SDS011;59323;50.874;7.028;2023-07-29T10:37:42;4.28;;;1.90;;
71503;SDS011;59323;50.874;7.028;2023-07-29T10:40:10;6.47;;;1.70;;
71503;SDS011;59323;50.874;7.028;2023-07-29T10:42:37;4.05;;;1.60;;
71503;SDS011;59323;50.874;7.028;2023-07-29T10:45:19;4.53;;;1.85;;
71503;SDS011;59323;50.874;7.028;2023-07-29T10:47:45;4.88;;;1.77;;
71503;SDS011;59323;50.874;7.028;2023-07-29T10:50:19;5.20;;;1.60;;
71503;SDS011;59323;50.874;7.028;2023-07-29T10:52:48;5.07;;;1.40;;
71503;SDS011;59323;50.874;7.028;2023-07-29T10:55:23;4.20;;;1.75;;
71503;SDS011;59323;50.874;7.028;2023-07-29T10:57:51;3.63;;;1.30;;
71503;SDS011;59323;50.874;7.028;2023-07-29T11:00:19;5.70;;;1.73;;
71503;SDS011;59323;50.874;7.028;2023-07-29T11:02:56;3.63;;;1.38;;
71503;SDS011;59323;50.874;7.028;2023-07-29T11:05:25;4.30;;;1.52;;
71503;SDS011;59323;50.874;7.028;2023-07-29T11:07:50;5.77;;;1.70;;
71503;SDS011;59323;50.874;7.028;2023-07-29T11:10:16;5.50;;;1.83;;
71503;SDS011;59323;50.874;7.028;2023-07-29T11:12:43;3.90;;;2.00;;
71503;SDS011;59323;50.874;7.028;2023-07-29T11:15:13;3.92;;;1.90;;
71503;SDS011;59323;50.874;7.028;2023-07-29T11:17:40;2.88;;;1.30;;
71503;SDS011;59323;50.874;7.028;2023-07-29T11:20:13;3.13;;;1.47;;
71503;SDS011;59323;50.874;7.028;2023-07-29T11:22:39;3.67;;;1.88;;
71503;SDS011;59323;50.874;7.028;2023-07-29T11:25:06;3.63;;;1.37;;
71503;SDS011;59323;50.874;7.028;2023-07-29T11:27:34;3.60;;;1.60;;
71503;SDS011;59323;50.874;7.028;2023-07-29T11:30:00;4.03;;;1.77;;
71503;SDS011;59323;50.874;7.028;2023-07-29T11:32:30;3.70;;;1.67;;
71503;SDS011;59323;50.874;7.028;2023-07-29T11:34:56;4.20;;;1.80;;
71503;SDS011;59323;50.874;7.028;2023-07-29T11:37:22;4.32;;;1.83;;
71503;SDS011;59323;50.874;7.028;2023-07-29T11:39:47;3.77;;;1.57;;
71503;SDS011;59323;50.874;7.028;2023-07-29T11:42:13;4.40;;;1.70;;
71503;SDS011;59323;50.874;7.028;2023-07-29T11:44:40;5.47;;;1.77;;
71503;SDS011;59323;50.874;7.028;2023-07-29T11:47:06;5.60;;;1.70;;
71503;SDS011;59323;50.874;7.028;2023-07-29T11:49:35;5.67;;;1.40;;
71503;SDS011;59323;50.874;7.028;2023-07-29T11:52:03;4.72;;;1.60;;
71503;SDS011;59323;50.874;7.028;2023-07-29T11:54:28;5.10;;;1.83;;
71503;SDS011;59323;50.874;7.028;2023-07-29T11:56:54;3.60;;;1.85;;
71503;SDS011;59323;50.874;7.028;2023-07-29T11:59:20;4.87;;;1.63;;
71503;SDS011;59323;50.874;7.028;2023-07-29T12:01:46;4.53;;;1.73;;
71503;SDS011;59323;50.874;7.028;2023-07-29T12:04:11;5.93;;;1.90;;
71503;SDS011;59323;50.874;7.028;2023-07-29T12:06:37;3.97;;;1.75;;
71503;SDS011;59323;50.874;7.028;2023-07-29T12:09:03;3.30;;;1.73;;
71503;SDS011;59323;50.874;7.028;2023-07-29T12:11:29;3.97;;;1.80;;
71503;SDS011;59323;50.874;7.028;2023-07-29T12:13:55;2.60;;;1.60;;
71503;SDS011;59323;50.874;7.028;2023-07-29T12:16:21;3.07;;;1.43;;
71503;SDS011;59323;50.874;7.028;2023-07-29T12:18:46;2.97;;;1.70;;
71503;SDS011;59323;50.874;7.028;2023-07-29T12:21:13;3.42;;;1.42;;
71503;SDS011;59323;50.874;7.028;2023-07-29T12:23:39;2.55;;;1.30;;
71503;SDS011;59323;50.874;7.028;2023-07-29T12:26:05;4.47;;;2.07;;
71503;SDS011;59323;50.874;7.028;2023-07-29T12:28:30;3.37;;;1.50;;
71503;SDS011;59323;50.874;7.028;2023-07-29T12:30:56;3.00;;;1.67;;
71503;SDS011;59323;50.874;7.028;2023-07-29T12:33:35;4.03;;;1.35;;
71503;SDS011;59323;50.874;7.028;2023-07-29T12:36:02;4.13;;;1.80;;
71503;SDS011;59323;50.874;7.028;2023-07-29T12:38:28;3.10;;;1.90;;
71503;SDS011;59323;50.874;7.028;2023-07-29T12:40:56;3.13;;;1.63;;
71503;SDS011;59323;50.874;7.028;2023-07-29T12:43:21;3.30;;;1.57;;
71503;SDS011;59323;50.874;7.028;2023-07-29T12:45:50;3.85;;;1.83;;
71503;SDS011;59323;50.874;7.028;2023-07-29T12:48:16;3.05;;;1.67;;
71503;SDS011;59323;50.874;7.028;2023-07-29T12:50:41;3.20;;;1.70;;
71503;SDS011;59323;50.874;7.028;2023-07-29T12:55:45;3.70;;;1.43;;
71503;SDS011;59323;50.874;7.028;2023-07-29T12:58:11;3.20;;;1.30;;
71503;SDS011;59323;50.874;7.028;2023-07-29T13:00:36;2.88;;;1.30;;
71503;SDS011;59323;50.874;7.028;2023-07-29T13:03:03;3.35;;;1.65;;
71503;SDS011;59323;50.874;7.028;2023-07-29T13:05:30;3.65;;;1.73;;
71503;SDS011;59323;50.874;7.028;2023-07-29T13:07:56;2.90;;;1.73;;
71503;SDS011;59323;50.874;7.028;2023-07-29T13:10:31;2.73;;;1.40;;
71503;SDS011;59323;50.874;7.028;2023-07-29T13:13:02;3.08;;;1.73;;
71503;SDS011;59323;50.874;7.028;2023-07-29T13:15:48;3.30;;;2.00;;
71503;SDS011;59323;50.874;7.028;2023-07-29T13:18:13;2.60;;;1.40;;
71503;SDS011;59323;50.874;7.028;2023-07-29T13:20:41;3.03;;;1.70;;
71503;SDS011;59323;50.874;7.028;2023-07-29T13:23:13;3.78;;;1.67;;
71503;SDS011;59323;50.874;7.028;2023-07-29T13:25:38;3.90;;;1.40;;
71503;SDS011;59323;50.874;7.028;2023-07-29T13:28:03;3.13;;;1.33;;
71503;SDS011;59323;50.874;7.028;2023-07-29T13:30:36;3.30;;;1.48;;
71503;SDS011;59323;50.874;7.028;2023-07-29T13:33:04;3.15;;;1.60;;
71503;SDS011;59323;50.874;7.028;2023-07-29T13:35:34;4.57;;;1.50;;
71503;SDS011;59323;50.874;7.028;2023-07-29T13:37:59;2.88;;;1.48;;
71503;SDS011;59323;50.874;7.028;2023-07-29T13:40:28;4.20;;;1.60;;
71503;SDS011;59323;50.874;7.028;2023-07-29T13:42:53;4.77;;;1.43;;
71503;SDS011;59323;50.874;7.028;2023-07-29T13:45:20;5.20;;;1.50;;
71503;SDS011;59323;50.874;7.028;2023-07-29T13:47:45;3.10;;;1.70;;
71503;SDS011;59323;50.874;7.028;2023-07-29T13:50:11;3.05;;;1.52;;
71503;SDS011;59323;50.874;7.028;2023-07-29T13:52:37;3.10;;;1.50;;
71503;SDS011;59323;50.874;7.028;2023-07-29T13:55:05;3.55;;;1.50;;
71503;SDS011;59323;50.874;7.028;2023-07-29T13:57:31;4.43;;;2.30;;
71503;SDS011;59323;50.874;7.028;2023-07-29T13:59:57;5.53;;;2.40;;
71503;SDS011;59323;50.874;7.028;2023-07-29T14:02:22;4.90;;;1.60;;
71503;SDS011;59323;50.874;7.028;2023-07-29T14:04:56;5.47;;;1.98;;
71503;SDS011;59323;50.874;7.028;2023-07-29T14:07:32;4.00;;;1.70;;
71503;SDS011;59323;50.874;7.028;2023-07-29T14:09:57;4.60;;;2.00;;
71503;SDS011;59323;50.874;7.028;2023-07-29T14:12:28;4.63;;;2.05;;
71503;SDS011;59323;50.874;7.028;2023-07-29T14:14:54;4.00;;;1.70;;
71503;SDS011;59323;50.874;7.028;2023-07-29T14:17:19;5.83;;;2.00;;
71503;SDS011;59323;50.874;7.028;2023-07-29T14:19:47;4.27;;;1.50;;
71503;SDS011;59323;50.874;7.028;2023-07-29T14:22:18;3.85;;;1.88;;
71503;SDS011;59323;50.874;7.028;2023-07-29T14:24:52;4.25;;;1.85;;
71503;SDS011;59323;50.874;7.028;2023-07-29T14:27:18;3.43;;;1.53;;
71503;SDS011;59323;50.874;7.028;2023-07-29T14:29:43;4.13;;;1.60;;
71503;SDS011;59323;50.874;7.028;2023-07-29T14:32:09;3.85;;;1.70;;
71503;SDS011;59323;50.874;7.028;2023-07-29T14:34:46;4.78;;;2.25;;
71503;SDS011;59323;50.874;7.028;2023-07-29T14:37:22;6.18;;;2.30;;
71503;SDS011;59323;50.874;7.028;2023-07-29T14:39:47;4.60;;;1.90;;
71503;SDS011;59323;50.874;7.028;2023-07-29T14:48:03;3.87;;;1.73;;
71503;SDS011;59323;50.874;7.028;2023-07-29T14:50:29;3.53;;;1.70;;
71503;SDS011;59323;50.874;7.028;2023-07-29T14:52:55;4.50;;;1.43;;
71503;SDS011;59323;50.874;7.028;2023-07-29T14:55:20;4.80;;;2.30;;
71503;SDS011;59323;50.874;7.028;2023-07-29T14:57:46;3.77;;;1.60;;
71503;SDS011;59323;50.874;7.028;2023-07-29T15:00:11;3.70;;;1.70;;
71503;SDS011;59323;50.874;7.028;2023-07-29T15:02:37;3.80;;;1.98;;
71503;SDS011;59323;50.874;7.028;2023-07-29T15:05:02;4.63;;;2.00;;
71503;SDS011;59323;50.874;7.028;2023-07-29T15:07:28;4.53;;;2.10;;
71503;SDS011;59323;50.874;7.028;2023-07-29T15:09:54;5.70;;;2.23;;
71503;SDS011;59323;50.874;7.028;2023-07-29T15:12:19;5.43;;;2.23;;